Forside
METAR-TAF:

METAR-TAF

Lufthavne :

Bellaire, Michigan, USA

Breddekreds: 44-59-18N, længdekreds: 085-11-54W, højde: 190 m

Aktuelle vejr

Denne rapport blev lavet for 28 minutter siden, kl. 02:35 UTC
Vind stille
Temperatur 16°C
Fugtighed 94%
Tryk 1014 hPa
Sigt: 16.1 km
skyfri

METAR: KACB 250235Z AUTO 00000KT 10SM CLR 16/15 A2995 RMK AO2 T01620146

Tid: 23:03 (03:03 UTC)


TAF: fraværende

Vejrobservationer og prognoser fra mere end 4000 lufthavne (METAR og TAF).

De gule og røde prikker repræsenterer de meteorologiske stationer.

Flyt musen over at se navnet på stationen.

Så klik over at se vejr observationer og prognoser.

At skifte det kort: Klik på de grønne knapper med et sort kors for at zoome ind; på den grønne knap med en bindestreg for at zoome ud; eller på de grønne pile for tilstødende kort.


METAR-TAF: